Time;durP1;ratioP1;P1;durP2;ratioP2;P2;SDS_P1;SDS_P2;PMS_P1;PMS_P2;Temp;Humidity;BMP_temperature;BMP_pressure;BME280_temperature;BME280_humidity;BME280_pressure;Samples;Min_cycle;Max_cycle;Signal;HPM_P1;HPM_P2
2022/07/22 00:01:31;;;;;;;0.10;0.10;;;16.50;99.90;;;;;;5061559;28;20048;-88
2022/07/22 00:03:57;;;;;;;0.20;0.20;;;16.50;99.90;;;;;;5067134;28;20488;-88
2022/07/22 00:06:22;;;;;;;0.13;0.13;;;16.50;99.90;;;;;;5076931;28;20056;-88
2022/07/22 00:08:48;;;;;;;0.20;0.20;;;16.50;99.90;;;;;;5057750;28;20036;-88
2022/07/22 00:11:14;;;;;;;0.20;0.20;;;16.40;99.90;;;;;;5057315;28;20187;-86
2022/07/22 00:13:39;;;;;;;0.10;0.10;;;16.50;99.90;;;;;;5070777;28;20044;-87
2022/07/22 00:16:06;;;;;;;0.13;0.13;;;16.50;99.90;;;;;;5064717;28;20039;-88
2022/07/22 00:18:32;;;;;;;0.20;0.20;;;16.50;99.90;;;;;;5073279;28;20032;-88
2022/07/22 00:20:58;;;;;;;0.10;0.10;;;16.50;99.90;;;;;;5068030;28;20041;-88
2022/07/22 00:23:24;;;;;;;0.15;0.15;;;16.50;99.90;;;;;;5074656;28;20044;-88
2022/07/22 00:25:49;;;;;;;0.20;0.20;;;16.50;99.90;;;;;;5088519;28;20096;-88
2022/07/22 00:28:15;;;;;;;0.10;0.10;;;16.50;99.90;;;;;;5069334;28;20040;-88
2022/07/22 00:30:41;;;;;;;0.20;0.20;;;16.50;99.90;;;;;;5067867;28;20113;-88
2022/07/22 00:33:09;;;;;;;0.13;0.13;;;16.60;99.90;;;;;;5066534;28;20040;-88
2022/07/22 00:35:35;;;;;;;0.10;0.10;;;16.60;99.90;;;;;;5066860;28;20386;-89
2022/07/22 00:38:00;;;;;;;0.10;0.10;;;16.60;99.90;;;;;;5063229;28;20044;-88
2022/07/22 00:40:26;;;;;;;0.20;0.20;;;16.60;99.90;;;;;;5066504;28;20041;-87
2022/07/22 00:42:52;;;;;;;0.20;0.20;;;16.60;99.90;;;;;;5056197;28;20650;-87
2022/07/22 00:45:19;;;;;;;0.10;0.10;;;16.60;99.90;;;;;;5070104;28;20495;-88
2022/07/22 00:47:45;;;;;;;0.13;0.13;;;16.60;99.90;;;;;;5093250;28;20043;-89
2022/07/22 00:50:11;;;;;;;0.20;0.20;;;16.60;99.90;;;;;;5080044;28;20503;-88
2022/07/22 00:52:38;;;;;;;0.20;0.20;;;16.50;99.90;;;;;;5075123;28;20044;-87
2022/07/22 00:55:05;;;;;;;0.20;0.20;;;16.50;99.90;;;;;;5071729;28;20131;-88
2022/07/22 00:57:30;;;;;;;0.20;0.20;;;16.50;99.90;;;;;;5079447;28;20048;-89
2022/07/22 00:59:57;;;;;;;0.20;0.20;;;16.50;99.90;;;;;;5072339;28;20094;-88
2022/07/22 01:02:23;;;;;;;0.20;0.20;;;16.50;99.90;;;;;;5074945;28;20075;-87
2022/07/22 01:04:49;;;;;;;0.10;0.10;;;16.40;99.90;;;;;;5076837;28;20109;-88
2022/07/22 01:07:15;;;;;;;0.20;0.20;;;16.50;99.90;;;;;;5078399;28;20032;-87
2022/07/22 01:09:45;;;;;;;0.20;0.20;;;16.40;99.90;;;;;;5062687;28;20064;-88
2022/07/22 01:12:11;;;;;;;0.20;0.20;;;16.40;99.90;;;;;;5082926;28;20484;-89
2022/07/22 01:14:37;;;;;;;0.20;0.20;;;16.40;99.90;;;;;;5079857;28;20078;-87
2022/07/22 01:17:03;;;;;;;0.20;0.20;;;16.40;99.90;;;;;;5079319;28;20044;-89
2022/07/22 01:19:28;;;;;;;0.20;0.20;;;16.40;99.90;;;;;;5067306;28;20046;-89
2022/07/22 01:21:54;;;;;;;0.20;0.20;;;16.40;99.90;;;;;;5067607;28;20033;-89
2022/07/22 01:24:20;;;;;;;0.20;0.20;;;16.40;99.90;;;;;;5077629;28;20036;-88
2022/07/22 01:26:49;;;;;;;0.20;0.20;;;16.40;99.90;;;;;;5078214;28;20055;-88
2022/07/22 01:29:14;;;;;;;0.10;0.10;;;16.40;99.90;;;;;;5087466;28;20036;-87
2022/07/22 01:31:40;;;;;;;0.20;0.20;;;16.40;99.90;;;;;;5066315;28;20044;-88
2022/07/22 01:34:06;;;;;;;0.20;0.20;;;16.40;99.90;;;;;;5071365;28;20068;-87
2022/07/22 01:36:31;;;;;;;0.10;0.10;;;16.40;99.90;;;;;;5065829;28;20483;-88
2022/07/22 01:38:57;;;;;;;0.20;0.20;;;16.40;99.90;;;;;;5071182;28;20484;-89
2022/07/22 01:41:23;;;;;;;0.20;0.20;;;16.40;99.90;;;;;;5067835;28;20044;-88
2022/07/22 01:43:48;;;;;;;0.15;0.15;;;16.40;99.90;;;;;;5062486;28;20049;-88
2022/07/22 01:46:18;;;;;;;0.20;0.20;;;16.50;99.90;;;;;;5067968;28;20045;-88
2022/07/22 01:48:44;;;;;;;0.10;0.10;;;16.40;99.90;;;;;;5086890;28;20054;-88
2022/07/22 01:51:10;;;;;;;0.20;0.20;;;16.40;99.90;;;;;;5072384;28;20041;-89
2022/07/22 01:53:36;;;;;;;0.20;0.20;;;16.30;99.90;;;;;;5082304;28;20047;-87
2022/07/22 01:56:04;;;;;;;0.20;0.20;;;16.40;99.90;;;;;;5081579;28;20044;-88
2022/07/22 01:58:30;;;;;;;0.20;0.20;;;16.40;99.90;;;;;;5071762;28;20408;-88
2022/07/22 02:00:55;;;;;;;0.20;0.20;;;16.40;99.90;;;;;;5061510;28;20037;-86
2022/07/22 02:03:21;;;;;;;0.20;0.20;;;16.40;99.90;;;;;;5056687;28;20056;-88
2022/07/22 02:05:49;;;;;;;0.20;0.20;;;16.40;99.90;;;;;;5070482;28;20496;-88
2022/07/22 02:08:15;;;;;;;0.20;0.20;;;16.40;99.90;;;;;;5072150;28;20040;-90
2022/07/22 02:10:41;;;;;;;0.10;0.10;;;16.40;99.90;;;;;;5066014;28;20032;-88
2022/07/22 02:13:07;;;;;;;0.10;0.10;;;16.20;99.90;;;;;;5084737;28;20053;-89
2022/07/22 02:15:33;;;;;;;0.17;0.17;;;16.30;99.90;;;;;;5070558;28;20139;-89
2022/07/22 02:17:58;;;;;;;0.10;0.10;;;16.30;99.90;;;;;;5070301;28;20475;-89
2022/07/22 02:20:24;;;;;;;0.20;0.20;;;16.30;99.90;;;;;;5074003;28;20036;-89
2022/07/22 02:22:50;;;;;;;0.20;0.20;;;16.30;99.90;;;;;;5074756;28;20069;-88
2022/07/22 02:25:16;;;;;;;0.20;0.20;;;16.30;99.90;;;;;;5067235;28;20075;-88
2022/07/22 02:27:42;;;;;;;0.17;0.17;;;16.30;99.90;;;;;;5061617;28;20052;-89
2022/07/22 02:30:10;;;;;;;0.20;0.20;;;16.30;99.90;;;;;;5073992;28;20060;-86
2022/07/22 02:32:35;;;;;;;0.20;0.20;;;16.30;99.90;;;;;;5076738;28;20126;-88
2022/07/22 02:35:01;;;;;;;0.20;0.20;;;16.20;99.90;;;;;;5066489;28;20037;-88
2022/07/22 02:37:27;;;;;;;0.10;0.10;;;16.20;99.90;;;;;;5086474;28;20220;-87
2022/07/22 02:39:52;;;;;;;0.10;0.10;;;16.30;99.90;;;;;;5066732;28;20063;-87
2022/07/22 02:42:18;;;;;;;0.20;0.20;;;16.30;99.90;;;;;;5078262;28;20528;-88
2022/07/22 02:44:44;;;;;;;0.10;0.10;;;16.30;99.90;;;;;;5073032;28;20043;-88
2022/07/22 02:47:09;;;;;;;0.20;0.20;;;16.30;99.90;;;;;;5089667;28;20468;-88
2022/07/22 02:49:35;;;;;;;0.13;0.13;;;16.30;99.90;;;;;;5079523;28;20398;-89
2022/07/22 02:52:01;;;;;;;0.10;0.10;;;16.20;99.90;;;;;;5062856;28;20075;-87
2022/07/22 02:54:29;;;;;;;0.20;0.20;;;16.30;99.90;;;;;;5067393;28;20041;-88
2022/07/22 02:56:54;;;;;;;0.20;0.20;;;16.30;99.90;;;;;;5081229;28;20152;-88
2022/07/22 02:59:20;;;;;;;0.10;0.10;;;16.40;99.90;;;;;;5076184;28;20056;-88
2022/07/22 03:01:46;;;;;;;0.10;0.10;;;16.30;99.90;;;;;;5086889;28;20052;-88
2022/07/22 03:04:11;;;;;;;0.20;0.20;;;16.40;99.90;;;;;;5074445;28;20161;-87
2022/07/22 03:06:37;;;;;;;0.20;0.20;;;16.30;99.90;;;;;;5064532;28;20058;-87
2022/07/22 03:09:04;;;;;;;0.20;0.20;;;16.30;99.90;;;;;;5065788;28;20037;-88
2022/07/22 03:11:30;;;;;;;0.10;0.10;;;16.30;99.90;;;;;;5070549;28;20052;-87
2022/07/22 03:13:55;;;;;;;0.20;0.20;;;16.40;99.90;;;;;;5086061;28;20328;-87
2022/07/22 03:16:21;;;;;;;0.20;0.20;;;16.50;99.90;;;;;;5062189;28;20048;-87
2022/07/22 03:18:46;;;;;;;0.20;0.20;;;16.40;99.90;;;;;;5056769;28;20178;-88
2022/07/22 03:21:12;;;;;;;0.20;0.20;;;16.40;99.90;;;;;;5065286;28;20507;-87
2022/07/22 03:23:38;;;;;;;0.10;0.10;;;16.30;99.90;;;;;;5055942;28;20045;-88
2022/07/22 03:26:04;;;;;;;0.10;0.10;;;16.30;99.90;;;;;;5070587;28;20038;-86
2022/07/22 03:28:29;;;;;;;0.20;0.20;;;16.30;99.90;;;;;;5066888;28;20047;-88
2022/07/22 03:30:55;;;;;;;0.20;0.20;;;16.30;99.90;;;;;;5068323;28;20484;-88
2022/07/22 03:33:20;;;;;;;0.20;0.20;;;16.30;99.90;;;;;;5078505;28;20110;-88
2022/07/22 03:35:46;;;;;;;0.20;0.20;;;16.30;99.90;;;;;;5064602;28;20039;-88
2022/07/22 03:38:12;;;;;;;0.20;0.20;;;16.30;99.90;;;;;;5083095;28;20507;-88
2022/07/22 03:40:37;;;;;;;0.10;0.10;;;16.20;99.90;;;;;;5062287;28;20055;-87
2022/07/22 03:43:03;;;;;;;0.20;0.20;;;16.30;99.90;;;;;;5068510;28;20036;-87
2022/07/22 03:45:28;;;;;;;0.20;0.20;;;16.50;99.90;;;;;;5073793;28;20500;-88
2022/07/22 03:47:54;;;;;;;0.20;0.20;;;16.30;99.90;;;;;;5076600;28;20093;-86
2022/07/22 03:50:23;;;;;;;0.20;0.20;;;16.30;99.90;;;;;;5064233;28;20036;-87
2022/07/22 03:52:52;;;;;;;0.10;0.10;;;16.30;99.90;;;;;;5081658;28;20052;-88
2022/07/22 03:55:18;;;;;;;0.20;0.20;;;16.20;99.90;;;;;;5083676;28;20033;-87
2022/07/22 03:57:43;;;;;;;0.20;0.20;;;16.20;99.90;;;;;;5071430;28;20049;-87
2022/07/22 04:00:09;;;;;;;0.10;0.10;;;16.20;99.90;;;;;;5074243;28;20059;-87
2022/07/22 04:02:35;;;;;;;0.20;0.20;;;16.20;99.90;;;;;;5062454;28;20037;-87
2022/07/22 04:05:04;;;;;;;0.20;0.20;;;16.20;99.90;;;;;;5066402;28;20221;-87
2022/07/22 04:07:29;;;;;;;0.20;0.20;;;16.40;99.90;;;;;;5070889;28;20566;-88
2022/07/22 04:10:04;;;;;;;0.10;0.10;;;16.20;99.90;;;;;;5059877;28;20080;-87
2022/07/22 04:12:33;;;;;;;0.10;0.10;;;16.70;99.90;;;;;;5075310;28;20135;-87
2022/07/22 04:14:58;;;;;;;0.20;0.20;;;16.10;99.90;;;;;;5076114;28;20048;-87
2022/07/22 04:17:24;;;;;;;0.15;0.15;;;16.20;99.90;;;;;;5058068;28;20504;-88
2022/07/22 04:19:49;;;;;;;0.20;0.20;;;16.20;99.90;;;;;;5069036;28;20049;-87
2022/07/22 04:22:15;;;;;;;0.20;0.20;;;16.20;99.90;;;;;;5066297;28;20040;-86
2022/07/22 04:24:40;;;;;;;0.20;0.20;;;16.20;99.90;;;;;;5062783;28;20049;-87
2022/07/22 04:27:06;;;;;;;0.20;0.20;;;16.20;99.90;;;;;;5063904;28;20036;-85
2022/07/22 04:29:32;;;;;;;0.10;0.10;;;16.10;99.90;;;;;;5062316;28;20051;-86
2022/07/22 04:31:58;;;;;;;0.20;0.20;;;16.10;99.90;;;;;;5074271;28;20112;-87
2022/07/22 04:34:23;;;;;;;0.20;0.20;;;16.20;99.90;;;;;;5069729;28;20442;-87
2022/07/22 04:36:49;;;;;;;0.20;0.20;;;16.20;99.90;;;;;;5074161;28;20040;-85
2022/07/22 04:39:15;;;;;;;0.20;0.20;;;16.20;99.90;;;;;;5078029;28;20036;-86
2022/07/22 04:41:40;;;;;;;0.10;0.10;;;16.10;99.90;;;;;;5069600;28;20171;-87
2022/07/22 04:44:06;;;;;;;0.20;0.20;;;16.20;99.90;;;;;;5070987;28;20432;-87
2022/07/22 04:46:31;;;;;;;0.20;0.20;;;16.20;99.90;;;;;;5067403;28;20136;-86
2022/07/22 04:48:57;;;;;;;0.20;0.20;;;16.20;99.90;;;;;;5069783;28;20064;-87
2022/07/22 04:51:24;;;;;;;0.15;0.15;;;16.20;99.90;;;;;;5065493;28;20503;-88
2022/07/22 04:53:49;;;;;;;0.10;0.10;;;16.20;99.90;;;;;;5064161;28;20449;-82
2022/07/22 04:56:15;;;;;;;0.20;0.20;;;16.20;99.90;;;;;;5063445;28;20131;-83
2022/07/22 04:58:41;;;;;;;0.10;0.10;;;16.30;99.90;;;;;;5067106;28;20046;-84
2022/07/22 05:01:06;;;;;;;0.20;0.20;;;16.20;99.90;;;;;;5057924;28;20049;-82
2022/07/22 05:03:32;;;;;;;0.20;0.20;;;16.20;99.90;;;;;;5067689;28;20147;-83
2022/07/22 05:05:59;;;;;;;0.20;0.20;;;16.20;99.90;;;;;;5070608;28;20059;-82
2022/07/22 05:08:24;;;;;;;0.20;0.20;;;16.20;99.90;;;;;;5086523;28;20561;-82
2022/07/22 05:10:50;;;;;;;0.20;0.20;;;16.20;99.90;;;;;;5052696;28;20053;-84
2022/07/22 05:13:15;;;;;;;0.20;0.20;;;16.20;99.90;;;;;;5067035;28;20115;-81
2022/07/22 05:15:41;;;;;;;0.20;0.20;;;16.20;99.90;;;;;;5071008;28;20099;-82
2022/07/22 05:18:07;;;;;;;0.20;0.20;;;16.20;99.90;;;;;;5072928;28;20044;-82
2022/07/22 05:20:32;;;;;;;0.10;0.10;;;16.20;99.90;;;;;;5070042;28;20480;-83
2022/07/22 05:22:58;;;;;;;0.20;0.20;;;16.20;99.90;;;;;;5074206;28;20111;-82
2022/07/22 05:25:24;;;;;;;0.20;0.20;;;16.20;99.90;;;;;;5066702;28;20049;-83
2022/07/22 05:27:52;;;;;;;0.20;0.20;;;16.20;99.90;;;;;;5053525;28;20171;-83
2022/07/22 05:30:17;;;;;;;0.20;0.20;;;16.20;99.90;;;;;;5052008;28;20052;-83
2022/07/22 05:32:43;;;;;;;0.20;0.20;;;16.30;99.90;;;;;;5072224;28;20047;-82
2022/07/22 05:35:09;;;;;;;0.20;0.20;;;16.30;99.90;;;;;;5069937;28;20037;-82
2022/07/22 05:37:34;;;;;;;0.20;0.20;;;16.30;99.90;;;;;;5065769;28;20055;-82
2022/07/22 05:40:00;;;;;;;0.20;0.20;;;16.30;99.90;;;;;;5069321;28;20045;-83
2022/07/22 05:42:25;;;;;;;0.20;0.20;;;16.30;99.90;;;;;;5050792;28;20048;-83
2022/07/22 05:44:51;;;;;;;0.20;0.20;;;16.30;99.90;;;;;;5052412;28;20051;-83
2022/07/22 05:47:17;;;;;;;0.20;0.20;;;16.30;99.90;;;;;;5052411;28;20037;-84
2022/07/22 05:49:42;;;;;;;0.20;0.20;;;16.40;99.90;;;;;;5060829;28;20044;-81
2022/07/22 05:52:08;;;;;;;0.20;0.20;;;16.30;99.90;;;;;;5063601;28;20067;-82
2022/07/22 05:54:33;;;;;;;0.20;0.20;;;16.40;99.90;;;;;;5052838;28;20055;-81
2022/07/22 05:56:59;;;;;;;0.10;0.10;;;16.40;99.90;;;;;;5051378;28;20055;-81
2022/07/22 05:59:24;;;;;;;0.20;0.20;;;16.40;99.90;;;;;;5071408;28;20118;-81
2022/07/22 06:01:50;;;;;;;0.20;0.20;;;16.40;99.90;;;;;;5066389;28;20396;-81
2022/07/22 06:04:16;;;;;;;0.20;0.20;;;16.40;99.90;;;;;;5068514;28;20473;-77
2022/07/22 06:06:41;;;;;;;0.10;0.10;;;16.40;99.90;;;;;;5073560;28;20052;-79
2022/07/22 06:09:07;;;;;;;0.17;0.17;;;16.50;99.90;;;;;;5069406;28;20846;-77
2022/07/22 06:11:32;;;;;;;0.20;0.20;;;16.50;99.90;;;;;;5057329;28;20041;-77
2022/07/22 06:13:58;;;;;;;0.20;0.20;;;16.50;99.90;;;;;;5063978;28;20053;-78
2022/07/22 06:16:24;;;;;;;0.20;0.20;;;16.60;99.90;;;;;;5060438;28;20048;-79
2022/07/22 06:18:52;;;;;;;0.20;0.20;;;16.60;99.90;;;;;;5066385;28;20052;-80
2022/07/22 06:21:17;;;;;;;0.20;0.20;;;16.60;99.90;;;;;;5067184;28;20047;-80
2022/07/22 06:23:43;;;;;;;0.20;0.20;;;16.60;99.90;;;;;;5078302;28;20385;-80
2022/07/22 06:26:09;;;;;;;0.10;0.10;;;16.60;99.90;;;;;;5058005;28;20036;-79
2022/07/22 06:28:34;;;;;;;0.20;0.20;;;16.60;99.90;;;;;;5078175;28;20048;-80
2022/07/22 06:31:00;;;;;;;0.10;0.10;;;16.70;99.90;;;;;;5077838;28;20091;-80
2022/07/22 06:33:25;;;;;;;0.20;0.20;;;16.60;99.90;;;;;;5058496;28;20599;-79
2022/07/22 06:35:51;;;;;;;0.20;0.20;;;16.80;99.90;;;;;;5062742;28;20054;-80
2022/07/22 06:38:17;;;;;;;0.10;0.10;;;16.80;99.90;;;;;;5049939;28;20041;-80
2022/07/22 06:40:42;;;;;;;0.20;0.20;;;16.80;99.90;;;;;;5059087;28;20083;-79
2022/07/22 06:43:11;;;;;;;0.10;0.10;;;16.80;99.90;;;;;;5075135;28;20044;-79
2022/07/22 06:45:37;;;;;;;0.20;0.20;;;16.90;99.90;;;;;;5085470;28;20079;-79
2022/07/22 06:48:02;;;;;;;0.20;0.20;;;16.90;99.90;;;;;;5070621;28;20086;-80
2022/07/22 06:50:28;;;;;;;0.20;0.20;;;16.90;99.90;;;;;;5069043;28;20045;-79
2022/07/22 06:52:54;;;;;;;0.20;0.20;;;17.00;99.90;;;;;;5065969;28;20052;-80
2022/07/22 06:55:20;;;;;;;0.20;0.20;;;17.00;99.90;;;;;;5065857;28;20048;-79
2022/07/22 06:57:45;;;;;;;0.20;0.20;;;17.10;99.90;;;;;;5089688;28;20063;-80
2022/07/22 07:00:15;;;;;;;0.20;0.20;;;17.10;99.90;;;;;;5067379;28;20547;-80
2022/07/22 07:02:40;;;;;;;0.17;0.17;;;17.10;99.90;;;;;;5067699;28;20044;-79
2022/07/22 07:05:06;;;;;;;0.10;0.10;;;17.20;99.90;;;;;;5070270;28;20506;-80
2022/07/22 07:07:32;;;;;;;0.20;0.20;;;17.20;99.90;;;;;;5063926;28;20499;-79
2022/07/22 07:09:57;;;;;;;0.10;0.10;;;17.30;99.90;;;;;;5067067;28;20118;-80
2022/07/22 07:12:23;;;;;;;0.20;0.20;;;17.40;99.90;;;;;;5061663;28;20043;-80
2022/07/22 07:14:49;;;;;;;0.20;0.20;;;17.30;99.90;;;;;;5056905;28;20131;-80
2022/07/22 07:17:15;;;;;;;0.20;0.20;;;17.30;99.90;;;;;;5053794;28;20048;-77
2022/07/22 07:19:41;;;;;;;0.20;0.20;;;17.30;99.90;;;;;;5056224;28;20550;-77
2022/07/22 07:22:07;;;;;;;0.20;0.20;;;17.30;99.90;;;;;;5059794;28;20141;-77
2022/07/22 07:24:32;;;;;;;0.10;0.10;;;17.30;99.90;;;;;;5053179;28;20051;-78
2022/07/22 07:26:58;;;;;;;0.20;0.20;;;17.40;99.90;;;;;;5058873;28;20045;-77
2022/07/22 07:29:24;;;;;;;0.10;0.10;;;17.30;99.90;;;;;;5059976;28;20453;-78
2022/07/22 07:31:53;;;;;;;0.20;0.20;;;17.40;99.90;;;;;;5066820;28;20045;-77
2022/07/22 07:34:18;;;;;;;0.17;0.17;;;17.30;99.90;;;;;;5054142;28;20406;-78
2022/07/22 07:36:44;;;;;;;0.20;0.20;;;17.40;99.90;;;;;;5068825;28;20469;-78
2022/07/22 07:39:10;;;;;;;0.10;0.10;;;17.30;99.90;;;;;;5055485;28;20037;-77
2022/07/22 07:41:35;;;;;;;0.20;0.20;;;17.40;99.90;;;;;;5052977;28;20080;-78
2022/07/22 07:44:01;;;;;;;0.20;0.20;;;17.40;99.90;;;;;;5066326;28;20056;-78
2022/07/22 07:46:29;;;;;;;0.20;0.20;;;17.40;99.90;;;;;;5062742;28;20044;-78
2022/07/22 07:48:55;;;;;;;0.20;0.20;;;17.50;99.90;;;;;;5048846;28;20110;-78
2022/07/22 07:51:20;;;;;;;0.20;0.20;;;17.50;99.90;;;;;;5069060;28;20040;-79
2022/07/22 07:53:50;;;;;;;0.20;0.20;;;17.50;99.90;;;;;;5053498;28;20186;-80
2022/07/22 07:56:16;;;;;;;0.20;0.20;;;17.50;99.90;;;;;;5068643;28;20052;-80
2022/07/22 07:58:42;;;;;;;0.20;0.20;;;17.50;99.90;;;;;;5073248;28;20131;-80
2022/07/22 08:01:07;;;;;;;0.20;0.20;;;17.50;99.90;;;;;;5067262;28;20048;-79
2022/07/22 08:03:33;;;;;;;0.20;0.20;;;17.50;99.90;;;;;;5057748;28;20028;-79
2022/07/22 08:06:00;;;;;;;0.20;0.20;;;17.60;99.90;;;;;;5058239;28;20076;-80
2022/07/22 08:08:26;;;;;;;0.20;0.20;;;17.60;99.90;;;;;;5051635;28;20041;-80
2022/07/22 08:10:52;;;;;;;0.20;0.20;;;17.60;99.90;;;;;;5074181;28;20079;-80
2022/07/22 08:13:18;;;;;;;0.20;0.20;;;17.70;99.90;;;;;;5069575;28;20074;-81
2022/07/22 08:15:44;;;;;;;0.13;0.13;;;17.70;99.90;;;;;;5061759;28;20295;-80
2022/07/22 08:18:12;;;;;;;0.10;0.10;;;17.80;99.90;;;;;;5070940;28;20052;-81
2022/07/22 08:20:38;;;;;;;0.20;0.20;;;17.80;99.90;;;;;;5071200;28;20040;-80
2022/07/22 08:23:04;;;;;;;0.20;0.20;;;17.80;99.90;;;;;;5066466;28;20098;-80
2022/07/22 08:25:29;;;;;;;0.20;0.20;;;17.80;99.90;;;;;;5072768;28;20135;-79
2022/07/22 08:27:55;;;;;;;0.20;0.20;;;17.80;99.90;;;;;;5074142;28;20048;-80
2022/07/22 08:30:23;;;;;;;0.17;0.17;;;17.70;99.90;;;;;;5092293;28;20044;-79
2022/07/22 08:32:49;;;;;;;0.20;0.20;;;17.70;99.90;;;;;;5065731;28;20264;-80
2022/07/22 08:35:15;;;;;;;0.20;0.20;;;17.70;99.90;;;;;;5053231;28;20048;-80
2022/07/22 08:37:49;;;;;;;0.20;0.20;;;17.80;99.90;;;;;;5051595;28;20045;-80
2022/07/22 08:40:17;;;;;;;0.20;0.20;;;17.70;99.90;;;;;;5054183;28;20094;-82
2022/07/22 08:42:45;;;;;;;0.20;0.20;;;17.70;99.90;;;;;;5051882;28;20053;-80
2022/07/22 08:45:11;;;;;;;0.20;0.20;;;17.60;99.90;;;;;;5066716;28;20048;-80
2022/07/22 08:47:38;;;;;;;0.20;0.20;;;17.60;99.90;;;;;;5056895;28;20052;-79
2022/07/22 08:50:04;;;;;;;0.20;0.20;;;17.60;99.90;;;;;;5073958;28;20044;-80
2022/07/22 08:52:30;;;;;;;0.20;0.20;;;17.60;99.90;;;;;;5067472;28;20451;-81
2022/07/22 08:54:55;;;;;;;0.20;0.20;;;17.50;99.90;;;;;;5055421;28;20128;-81
2022/07/22 08:57:21;;;;;;;0.10;0.10;;;17.60;99.90;;;;;;5060668;28;20401;-81
2022/07/22 08:59:57;;;;;;;0.20;0.20;;;17.60;99.90;;;;;;5057013;28;20487;-81
2022/07/22 09:02:23;;;;;;;0.20;0.20;;;17.60;99.90;;;;;;5053439;28;20037;-79
2022/07/22 09:04:56;;;;;;;0.20;0.20;;;17.60;99.90;;;;;;5066710;28;20490;-80
2022/07/22 09:07:30;;;;;;;0.10;0.10;;;17.60;99.90;;;;;;5073437;28;20077;-79
2022/07/22 09:09:57;;;;;;;0.10;0.10;;;17.60;99.90;;;;;;5071070;28;20142;-79
2022/07/22 09:12:24;;;;;;;0.20;0.20;;;17.60;99.90;;;;;;5072946;28;20045;-79
2022/07/22 09:14:55;;;;;;;0.20;0.20;;;17.70;99.90;;;;;;5067029;28;20045;-79
2022/07/22 09:17:28;;;;;;;0.20;0.20;;;17.70;99.90;;;;;;5069235;28;20041;-79
2022/07/22 09:19:56;;;;;;;0.20;0.20;;;17.70;99.90;;;;;;5073390;28;20098;-80
2022/07/22 09:22:41;;;;;;;0.20;0.20;;;17.80;99.90;;;;;;5067616;28;20048;-79
2022/07/22 09:25:25;;;;;;;0.20;0.20;;;17.90;99.90;;;;;;5051043;28;20162;-80
2022/07/22 09:27:54;;;;;;;0.20;0.20;;;17.90;99.90;;;;;;5051426;28;20255;-80
2022/07/22 09:30:25;;;;;;;0.20;0.20;;;17.90;99.90;;;;;;5053984;28;20145;-80
2022/07/22 09:32:52;;;;;;;;;;;18.00;99.90;;;;;;5069030;28;20083;-81
2022/07/22 09:35:21;;;;;;;0.20;0.20;;;18.00;99.90;;;;;;5074458;28;20131;-80
2022/07/22 09:38:04;;;;;;;0.20;0.20;;;18.00;99.90;;;;;;5061006;28;20048;-80
2022/07/22 09:40:36;;;;;;;0.20;0.20;;;18.00;99.90;;;;;;5061807;28;20080;-80
2022/07/22 09:43:17;;;;;;;0.10;0.10;;;18.00;99.90;;;;;;5067276;28;20044;-79
2022/07/22 09:45:50;;;;;;;0.20;0.20;;;17.90;99.90;;;;;;5071393;28;20105;-78
2022/07/22 09:48:18;;;;;;;0.10;0.10;;;18.00;99.90;;;;;;5061369;28;20245;-79
2022/07/22 09:50:46;;;;;;;0.20;0.20;;;18.00;99.90;;;;;;5067290;28;20337;-80
2022/07/22 09:53:12;;;;;;;0.20;0.20;;;18.00;99.90;;;;;;5056033;28;20044;-81
2022/07/22 09:55:39;;;;;;;0.20;0.20;;;18.00;99.90;;;;;;5082156;28;20040;-79
2022/07/22 09:58:07;;;;;;;0.20;0.20;;;18.00;99.90;;;;;;5065587;28;20064;-78
2022/07/22 10:00:36;;;;;;;0.20;0.20;;;18.00;99.90;;;;;;5056362;28;20396;-78
2022/07/22 10:03:05;;;;;;;0.20;0.20;;;18.10;99.90;;;;;;5071118;28;20039;-79
2022/07/22 10:05:37;;;;;;;0.20;0.20;;;18.10;99.90;;;;;;5052772;28;20432;-80
2022/07/22 10:08:05;;;;;;;0.20;0.20;;;18.10;99.90;;;;;;5052764;28;20083;-79
2022/07/22 10:10:32;;;;;;;0.10;0.10;;;18.20;99.90;;;;;;5060677;28;20041;-80
2022/07/22 10:13:00;;;;;;;0.10;0.10;;;18.20;99.90;;;;;;5071174;28;20056;-80
2022/07/22 10:15:27;;;;;;;0.15;0.15;;;18.30;99.90;;;;;;5054832;28;20044;-82
2022/07/22 10:17:55;;;;;;;0.20;0.20;;;18.30;99.90;;;;;;5072848;28;20123;-82
2022/07/22 10:20:23;;;;;;;0.20;0.20;;;18.40;99.90;;;;;;5054973;28;20412;-82
2022/07/22 10:22:55;;;;;;;0.17;0.17;;;18.40;99.90;;;;;;5059618;28;20048;-81
2022/07/22 10:25:24;;;;;;;0.17;0.17;;;18.40;99.90;;;;;;5061069;28;20099;-81
2022/07/22 10:27:59;;;;;;;0.10;0.10;;;18.30;99.90;;;;;;5051569;28;20037;-82
2022/07/22 10:30:35;;;;;;;0.20;0.20;;;18.40;99.90;;;;;;5064730;28;20056;-81
2022/07/22 10:33:04;;;;;;;0.20;0.20;;;18.30;99.90;;;;;;5064765;28;20047;-81
2022/07/22 10:35:30;;;;;;;0.10;0.10;;;18.40;99.90;;;;;;5064725;28;20048;-81
2022/07/22 10:37:59;;;;;;;0.10;0.10;;;18.40;99.90;;;;;;5083741;28;20336;-81
2022/07/22 10:40:30;;;;;;;0.20;0.20;;;18.40;99.90;;;;;;5070349;28;20056;-81
2022/07/22 10:43:03;;;;;;;0.10;0.10;;;18.50;99.90;;;;;;5050296;28;20409;-82
2022/07/22 10:45:35;;;;;;;0.20;0.20;;;18.60;99.90;;;;;;5056436;28;20067;-81
2022/07/22 10:48:23;;;;;;;0.20;0.20;;;18.60;99.90;;;;;;5071136;28;20127;-81
2022/07/22 10:50:51;;;;;;;0.17;0.17;;;18.70;99.90;;;;;;5050571;28;20060;-81
2022/07/22 10:53:18;;;;;;;0.20;0.20;;;18.70;99.90;;;;;;5064192;28;20397;-83
2022/07/22 10:56:21;;;;;;;0.10;0.10;;;18.70;99.90;;;;;;5063413;28;20036;-81
2022/07/22 10:58:53;;;;;;;0.20;0.20;;;18.80;99.90;;;;;;5065008;28;20048;-81
2022/07/22 11:01:21;;;;;;;0.20;0.20;;;18.70;99.90;;;;;;5065361;28;20044;-81
2022/07/22 11:03:48;;;;;;;0.20;0.20;;;18.80;99.90;;;;;;5060091;28;20048;-79
2022/07/22 11:06:26;;;;;;;0.20;0.20;;;18.80;99.90;;;;;;5074810;28;20565;-80
2022/07/22 11:08:55;;;;;;;0.10;0.10;;;18.80;99.90;;;;;;5058634;28;20399;-81
2022/07/22 11:11:49;;;;;;;0.20;0.20;;;18.90;99.90;;;;;;5078652;28;20089;-82
2022/07/22 11:14:36;;;;;;;0.20;0.20;;;18.90;99.90;;;;;;5058924;28;20484;-82
2022/07/22 11:17:08;;;;;;;0.20;0.20;;;18.90;99.90;;;;;;5077577;28;20044;-80
2022/07/22 11:19:37;;;;;;;0.20;0.20;;;18.90;99.90;;;;;;5061196;28;20043;-81
2022/07/22 11:22:11;;;;;;;0.20;0.20;;;18.90;99.90;;;;;;5053860;28;20040;-80
2022/07/22 11:24:38;;;;;;;0.20;0.20;;;18.90;99.90;;;;;;5068336;28;20115;-80
2022/07/22 11:27:08;;;;;;;0.20;0.20;;;18.80;99.90;;;;;;5069924;28;20078;-81
2022/07/22 11:29:40;;;;;;;0.20;0.20;;;18.80;99.90;;;;;;5055070;28;20534;-81
2022/07/22 11:32:09;;;;;;;0.20;0.20;;;18.80;99.90;;;;;;5065751;28;20480;-80
2022/07/22 11:34:42;;;;;;;0.13;0.13;;;18.70;99.90;;;;;;5067629;28;20048;-80
2022/07/22 11:37:08;;;;;;;0.20;0.20;;;18.70;99.90;;;;;;5070039;28;20049;-80
2022/07/22 11:39:37;;;;;;;0.10;0.10;;;18.70;99.90;;;;;;5064856;28;20045;-82
2022/07/22 11:42:04;;;;;;;0.10;0.10;;;18.60;99.90;;;;;;5055894;28;20036;-80
2022/07/22 11:44:32;;;;;;;0.20;0.20;;;18.70;99.90;;;;;;5064634;28;20044;-80
2022/07/22 11:46:58;;;;;;;0.20;0.20;;;18.70;99.90;;;;;;5060610;28;20052;-79
2022/07/22 11:49:25;;;;;;;0.20;0.20;;;18.70;99.90;;;;;;5085088;28;20433;-82
2022/07/22 11:51:52;;;;;;;0.20;0.20;;;18.70;99.90;;;;;;5074028;28;20516;-79
2022/07/22 11:54:18;;;;;;;0.10;0.10;;;18.80;99.90;;;;;;5053254;28;20032;-79
2022/07/22 11:56:44;;;;;;;0.20;0.20;;;18.80;99.90;;;;;;5062784;28;20036;-81
2022/07/22 11:59:14;;;;;;;0.20;0.20;;;18.80;99.90;;;;;;5066320;28;20053;-81
2022/07/22 12:01:40;;;;;;;0.20;0.20;;;18.80;99.90;;;;;;5065229;28;20048;-80
2022/07/22 12:04:12;;;;;;;0.10;0.10;;;18.90;99.90;;;;;;5069391;28;20044;-80
2022/07/22 12:06:41;;;;;;;0.10;0.10;;;19.00;99.90;;;;;;5068952;28;20051;-80
2022/07/22 12:09:22;;;;;;;0.10;0.10;;;19.00;99.90;;;;;;5065333;28;20442;-80
2022/07/22 12:11:50;;;;;;;0.20;0.20;;;19.00;99.90;;;;;;5070003;28;20428;-80
2022/07/22 12:14:36;;;;;;;0.17;0.17;;;19.10;99.90;;;;;;5070423;28;20048;-80
2022/07/22 12:17:10;;;;;;;0.20;0.20;;;19.10;99.90;;;;;;5069827;28;20052;-80
2022/07/22 12:19:37;;;;;;;0.20;0.20;;;19.10;99.90;;;;;;5056818;28;20041;-81
2022/07/22 12:22:08;;;;;;;0.10;0.10;;;19.10;99.90;;;;;;5064471;28;20059;-80
2022/07/22 12:24:34;;;;;;;0.20;0.20;;;19.20;99.90;;;;;;5059291;28;20183;-80
2022/07/22 12:27:08;;;;;;;0.20;0.20;;;19.20;99.90;;;;;;5057303;28;20074;-79
2022/07/22 12:29:37;;;;;;;0.15;0.15;;;19.30;99.90;;;;;;5068931;28;20083;-80
2022/07/22 12:32:08;;;;;;;0.10;0.10;;;19.40;99.90;;;;;;5068408;28;20101;-79
2022/07/22 12:34:41;;;;;;;0.20;0.20;;;19.40;99.90;;;;;;5049522;28;20045;-80
2022/07/22 12:37:16;;;;;;;0.20;0.20;;;19.50;99.90;;;;;;5051416;28;20052;-80
2022/07/22 12:40:09;;;;;;;0.13;0.13;;;19.50;99.90;;;;;;5065736;28;20058;-80
2022/07/22 12:42:36;;;;;;;0.20;0.20;;;19.40;99.90;;;;;;5053998;28;20041;-79
2022/07/22 12:45:10;;;;;;;0.20;0.20;;;19.50;99.90;;;;;;5068829;28;20507;-78
2022/07/22 12:47:45;;;;;;;0.17;0.17;;;19.40;99.90;;;;;;5067671;28;20409;-78
2022/07/22 12:50:33;;;;;;;0.20;0.20;;;19.40;99.90;;;;;;5052627;28;20045;-79